Sonic Adventure (DX): Overall Rankings

Records: Times | Rings | Scores | Races | Bosses | Freestyle
Leaders: Times | Rings | Scores | Races | Bosses | Freestyle | Overall
Rank Player Percent Points Date
1 Gamepro011 97.7% 397 12-12-19
2 Sonicspeedruner 97.7% 399 12-12-19
3 DarkPolarNight 96.4% 643 12-12-19
4 Jawzun 92.8% 1274 12-12-19
5 Dashjump 91.3% 1551 12-12-19
6 Avento128bits 89.3% 1916 12-12-19
7 DarkspinesSonic 89.2% 1921 12-12-19
8 ike6252 89.0% 1961 12-12-19
9 F-Man 87.2% 2296 12-12-19
10 Coolfansonic 86.7% 2371 12-12-19
11 TheRealShadnic 84.7% 2737 12-12-19
12 HyperSonic7701 83.8% 2900 12-12-19
13 yoshifan 82.1% 3197 12-12-19
14 frankoredstrato 81.8% 3265 12-12-19
15 francisco 80.8% 3441 12-12-19
16 Marth 80.5% 3482 12-12-19
17 InferSaime 79.3% 3704 12-12-19
18 PfoSonic 78.9% 3782 12-12-19
19 Paragod 78.4% 3863 12-12-19
20 THC98 77.6% 4003 12-12-19
21 Stefan 75.2% 4443 12-12-19
22 Dekuboy 73.8% 4698 12-12-19
23 RPGnutter 73.0% 4834 12-12-19
24 bertin 72.9% 4857 12-12-19
25 sonicam 70.8% 5225 12-12-19
26 drminus 69.4% 5486 12-12-19
27 chaos shadow 68.8% 5590 12-12-19
28 Nim 68.4% 5668 12-12-19
29 chainchump 65.5% 6174 12-12-19
30 Combo 64.9% 6296 12-12-19
31 SkyLights 63.7% 6502 12-12-19
32 xXMegaManXx 62.1% 6799 12-12-19
33 Diamond 61.8% 6844 12-12-19
34 Auriman1 59.6% 7238 12-12-19
34 GerbilSoft 59.6% 7238 12-12-19
36 OmegaDJ 59.5% 7251 12-12-19
37 magnum12 58.7% 7395 12-12-19
38 Thorn 56.5% 7794 12-12-19
39 P1 Pause 56.3% 7840 12-12-19
40 mike89 55.1% 8045 12-12-19
41 Dave Cramer 53.3% 8377 12-12-19
42 Groudon199 53.2% 8393 12-12-19
43 Parax 52.7% 8473 12-12-19
44 Shadow Jacky 52.1% 8584 12-12-19
45 Zurggriff 48.5% 9235 12-12-19
46 SPVLABS 48.2% 9286 12-12-19
47 Psymar 47.1% 9491 12-12-19
48 Arch 46.2% 9642 12-12-19
49 Niczur 46.1% 9666 12-12-19
50 Chao_Fan 45.3% 9805 12-12-19
51 mauserman 44.7% 9907 12-12-19
52 Quartz 44.1% 10014 12-12-19
53 teamblackarms 43.5% 10130 12-12-19
54 Psyknux 42.8% 10248 12-12-19
55 James_Bertolli 42.3% 10336 12-12-19
56 Cyan Ryan 42.2% 10354 12-12-19
57 NintenDan 41.9% 10413 12-12-19
58 Turbos 41.3% 10524 12-12-19
59 Webber3000 41.3% 10529 12-12-19
60 Ring Rush 41.2% 10550 12-12-19
61 Fr3nZy 41.1% 10563 12-12-19
62 Cream147 40.9% 10596 12-12-19
63 videogamemaster777 40.7% 10626 12-12-19
64 Siavash Tazari 40.6% 10642 12-12-19
65 buddychaos0415 40.1% 10735 12-12-19
66 SadisticMystic 39.7% 10811 12-12-19
67 ethmar 39.4% 10867 12-12-19
68 eggFL 38.7% 10998 12-12-19
69 Calfd 38.1% 11096 12-12-19
70 SB737 37.0% 11289 12-12-19
71 supersonic465 36.6% 11369 12-12-19
72 supersonicfan 36.0% 11475 12-12-19
73 FuzZerd 34.8% 11685 12-12-19
74 Aitamen 34.4% 11757 12-12-19
75 BigAL49 34.0% 11835 12-12-19
76 elecmouse101 33.9% 11848 12-12-19
77 danieldude 33.9% 11857 12-12-19
78 Austinf 33.5% 11928 12-12-19
79 metanightmare22 32.8% 12057 12-12-19
80 dabestgamer 32.3% 12138 12-12-19
81 MiStEr_ShAoLiN 32.2% 12165 12-12-19
82 Andrea Ritsu 31.4% 12294 12-12-19
83 itsPersonnal 31.3% 12324 12-12-19
84 Cybrax 30.5% 12454 12-12-19
85 WeegeeZV 30.3% 12498 12-12-19
86 JamminX42 30.2% 12509 12-12-19
86 SilvertheAlmighty 30.2% 12509 12-12-19
88 Mastakirby 29.9% 12561 12-12-19
89 VMU Player Banned 28.5% 12822 12-12-19
90 Omega Rafael Santos 28.1% 12899 12-12-19
91 Staf 27.8% 12945 12-12-19
92 The T 27.5% 13006 12-12-19
93 EngiNerd 27.2% 13060 12-12-19
94 lordmetalsonic 26.7% 13142 12-12-19
95 Hipertails12 26.6% 13165 12-12-19
96 welldooder64 26.1% 13252 12-12-19
97 GreatStar 26.0% 13263 12-12-19
98 The Great Lord Mick 25.7% 13316 12-12-19
99 Sondow 25.6% 13333 12-12-19
100 LinksDarkArrows 25.5% 13364 12-12-19
101 Skylace 24.6% 13527 12-12-19
102 a_moustache 23.8% 13659 12-12-19
103 Rolken 23.0% 13808 12-12-19
104 Xia 21.4% 14096 12-12-19
105 Spinballwizard 21.4% 14097 12-12-19
106 Kogen Player Banned 21.3% 14121 12-12-19
107 CoEmpathy 21.0% 14159 12-12-19
107 Don 21.0% 14159 12-12-19
109 f0rever_zer0 21.0% 14174 12-12-19
110 Miles9999 20.9% 14185 12-12-19
111 Twilisailor 20.9% 14190 12-12-19
112 Game_Complete 20.8% 14196 12-12-19
113 Cutiefox 20.7% 14219 12-12-19
114 iden1 20.4% 14272 12-12-19
115 andres430 20.1% 14329 12-12-19
116 Cruizer 19.9% 14360 12-12-19
117 iSonicKid2K 19.7% 14393 12-12-19
118 SADXTryHard 19.6% 14418 12-12-19
119 GarnetPrincess 19.0% 14518 12-12-19
120 N 19.0% 14519 12-12-19
121 AxlThunder 18.7% 14574 12-12-19
122 knuckles_sonic8 18.4% 14641 12-12-19
123 KinkyCadence 17.9% 14727 12-12-19
124 The Knuckles Chao 17.8% 14743 12-12-19
125 Team_Yoshi 17.7% 14750 12-12-19
126 Termon 17.6% 14784 12-12-19
127 LittleBigness 17.4% 14818 12-12-19
128 SonicWinDX 17.3% 14829 12-12-19
129 FoxBoy 17.3% 14837 12-12-19
130 Drakodan 16.6% 14959 12-12-19
131 Sonic Singularity 15.5% 15161 12-12-19
132 Pokemonmaster888 15.3% 15189 12-12-19
133 paulie9990 14.8% 15283 12-12-19
134 SilverSonic 14.2% 15385 12-12-19
135 MPit08 14.0% 15428 12-12-19
136 Mo Player Banned 13.8% 15449 12-12-19
137 koinu93 13.6% 15498 12-12-19
138 Cod4Scopes 13.3% 15552 12-12-19
139 Jerzia 13.2% 15566 12-12-19
140 Hunters13 13.1% 15586 12-12-19
141 HyperSonic64 13.1% 15591 12-12-19
142 booo95 12.9% 15622 12-12-19
143 Chawkk 12.9% 15626 12-12-19
144 SuperSonic101 12.7% 15652 12-12-19
145 Maxinfamily 12.6% 15676 12-12-19
146 R3FR4G 12.6% 15681 12-12-19
147 PsyBorg 12.3% 15723 12-12-19
148 Kanimayo_Jp 12.3% 15731 12-12-19
149 Flying Fox 12.2% 15741 12-12-19
149 LilZero 12.2% 15741 12-12-19
151 BrokenArthritis 12.1% 15764 12-12-19
152 Therio 11.7% 15834 12-12-19
153 sonicspeed 11.4% 15889 12-12-19
154 SonicAD 11.4% 15894 12-12-19
155 douglas 11.3% 15911 12-12-19
156 thewaytodawnnn 11.1% 15934 12-12-19
157 Matt_TY 11.1% 15949 12-12-19
158 ModifiedMonkee 11.0% 15960 12-12-19
159 SuperBlitzCraig 10.4% 16060 12-12-19
160 joecoolgames 10.4% 16063 12-12-19
161 Cooljay 10.4% 16064 12-12-19
162 SeaWolf 10.4% 16069 12-12-19
163 videogamer1014 10.1% 16123 12-12-19
164 AC-Tygo 9.9% 16164 12-12-19
165 welshmoose05 9.8% 16179 12-12-19
166 OddCook 9.6% 16215 12-12-19
167 TFEC Headshot 9.6% 16216 12-12-19
168 crazy1993 9.5% 16223 12-12-19
169 Mariobutch 9.5% 16236 12-12-19
170 Mcshuggets 9.4% 16248 12-12-19
171 Irregular Zero 9.1% 16308 12-12-19
172 nuckrieg 9.0% 16315 12-12-19
173 niscool 9.0% 16320 12-12-19
174 Shadowthegreat 8.7% 16375 12-12-19
175 SirTobbii 8.6% 16382 12-12-19
175 superjupi 8.6% 16382 12-12-19
177 Powerjohn25 8.4% 16421 12-12-19
178 sonamyfan666 8.4% 16431 12-12-19
179 iarebored 8.3% 16436 12-12-19
180 SaviourDC 8.3% 16438 12-12-19
181 Badlex727 8.3% 16452 12-12-19
181 SonicKnuckles 8.3% 16452 12-12-19
183 Werey 8.1% 16475 12-12-19
184 adf 7.9% 16519 12-12-19
185 Megaman EXE565 7.6% 16569 12-12-19
186 ArcticDragon 7.5% 16596 12-12-19
187 Platformer 7.3% 16625 12-12-19
188 timpkmn89 7.2% 16645 12-12-19
189 Swift Hobo 7.2% 16648 12-12-19
190 FocusSight64 7.1% 16652 12-12-19
191 Vicklaw 7.1% 16669 12-12-19
192 wheatrich 7.0% 16683 12-12-19
193 Rickyman48 6.9% 16695 12-12-19
194 Sm4sh 6.7% 16730 12-12-19
195 KitsuneYamaro 6.7% 16733 12-12-19
196 Triseena 6.5% 16775 12-12-19
197 CyberShadow 6.3% 16797 12-12-19
198 Starlight Sable 6.3% 16798 12-12-19
199 Destroyer121121 6.3% 16803 12-12-19
200 slade23 6.3% 16805 12-12-19
201 dShadow 6.2% 16824 12-12-19
202 IsisDazs 6.1% 16831 12-12-19
203 BlankTH 5.9% 16875 12-12-19
204 Monkeh 5.7% 16904 12-12-19
205 SonicU260 5.5% 16940 12-12-19
206 Richied 5.5% 16942 12-12-19
207 DaDude 5.5% 16947 12-12-19
207 Swinkly 5.5% 16947 12-12-19
209 Crispian 5.5% 16952 12-12-19
210 sonicd5 5.4% 16961 12-12-19
211 Zip 5.3% 16976 12-12-19
212 VeritasDL 5.2% 16998 12-12-19
213 tal39h 5.0% 17031 12-12-19
214 ALundstrom10 5.0% 17045 12-12-19
214 Kirbymon30 5.0% 17045 12-12-19
216 soniccoloursunleashed 4.8% 17081 12-12-19
217 Drflash55 4.7% 17093 12-12-19
218 Bass 4.6% 17113 12-12-19
219 Yish 4.6% 17117 12-12-19
220 neaolas 4.5% 17124 12-12-19
221 zapp 4.5% 17129 12-12-19
222 UninspiredUsername 4.5% 17132 12-12-19
223 Sonicsuperstar1 4.4% 17138 12-12-19
224 superiorsonic 4.4% 17143 12-12-19
225 gamefreak1292 4.4% 17151 12-12-19
226 Sora_yx 4.2% 17180 12-12-19
227 Chaos_Overlord 4.0% 17220 12-12-19
228 TakaRikka 3.9% 17229 12-12-19
229 Valfore 3.9% 17238 12-12-19
230 Dage4Aquatic 3.8% 17255 12-12-19
231 ShinigamiMachine 3.7% 17265 12-12-19
232 Regano1000 3.6% 17281 12-12-19
233 MK 3.5% 17301 12-12-19
234 Ace747 3.5% 17312 12-12-19
235 Jua Rever 3.3% 17343 12-12-19
236 Venick409 3.1% 17382 12-12-19
237 HHNNBBHHN 3.1% 17383 12-12-19
237 Illidan 3.1% 17383 12-12-19
239 Brian_pso 3.0% 17387 12-12-19
240 nman36 3.0% 17394 12-12-19
240 Sithwarrior26 3.0% 17394 12-12-19
242 ArthurVGCP 2.9% 17417 12-12-19
243 Egor305 2.9% 17421 12-12-19
244 ingx24 2.8% 17423 12-12-19
245 TheChaosEmeraIds 2.8% 17424 12-12-19
246 Nickson98 2.8% 17436 12-12-19
246 SkyBon 2.8% 17436 12-12-19
248 FSSRandomvids 2.7% 17441 12-12-19
249 dekki1234 2.7% 17445 12-12-19
250 Fozer 2.7% 17456 12-12-19
251 sonic29887 2.6% 17462 12-12-19
252 Aiko 2.6% 17468 12-12-19
252 Colomb_30 2.6% 17468 12-12-19
254 TheUltraBlur 2.6% 17469 12-12-19
255 1stKirbyever 2.5% 17479 12-12-19
256 TimTH 2.4% 17497 12-12-19
257 Th4tN1nj4Turtl3 2.3% 17522 12-12-19
258 Cort_pso 2.3% 17528 12-12-19
259 Doom-9 2.2% 17535 12-12-19
260 ieatatsonic 2.2% 17538 12-12-19
261 Mariosonic15 2.2% 17548 12-12-19
262 MStitomix 2.1% 17558 12-12-19
263 HermitHelmet 2.1% 17565 12-12-19
264 arcfx1985 2.0% 17567 12-12-19
265 SuperSonic71087 2.0% 17577 12-12-19
266 Got4n 2.0% 17584 12-12-19
267 Artie 1.9% 17586 12-12-19
268 Questionguy555 1.9% 17589 12-12-19
269 Jose_15 1.9% 17593 12-12-19
270 djmat 1.8% 17606 12-12-19
271 SuperSonicfan9595 1.8% 17613 12-12-19
272 sonicandamy Player Banned 1.7% 17631 12-12-19
273 LancexExWx 1.7% 17636 12-12-19
274 Paixii 1.6% 17639 12-12-19
275 son1cgu1tar 1.6% 17644 12-12-19
276 Heroes_Hater 1.6% 17652 12-12-19
277 BallzeH 1.5% 17660 12-12-19
278 Jamixesa 1.5% 17666 12-12-19
279 Mankster101 1.5% 17667 12-12-19
280 BecauseWarAnvil 1.4% 17674 12-12-19
281 Shanekilz 1.4% 17680 12-12-19
282 Crydio 1.4% 17681 12-12-19
283 SpiritDragon1995 1.4% 17685 12-12-19
284 MarewBFN 1.3% 17698 12-12-19
285 stanski 1.3% 17701 12-12-19
286 Sonique Hedgehog 1.3% 17704 12-12-19
287 Blue Infamy 1.2% 17717 12-12-19
288 p0ker 1.2% 17720 12-12-19
289 ErrortheCucco 1.1% 17728 12-12-19
290 Arthas 1.1% 17731 12-12-19
290 Rikum22 1.1% 17731 12-12-19
292 sonic1001 1.1% 17739 12-12-19
293 AJSIV 1.1% 17745 12-12-19
294 syco1098 1.0% 17746 12-12-19
295 WingedInsignia 1.0% 17748 12-12-19
296 Sonic the Hedgehod16 1.0% 17749 12-12-19
297 ASINISTERTACO 1.0% 17756 12-12-19
298 sonicfan9 1.0% 17761 12-12-19
299 themachoman202 0.9% 17773 12-12-19
300 BlackArmsShadow 0.9% 17774 12-12-19
301 shadowblast63 Player Banned 0.9% 17779 12-12-19
302 Fivavoa 0.8% 17782 12-12-19
303 Ben1502 0.8% 17783 12-12-19
304 MastaToken 0.8% 17784 12-12-19
304 Mr. Jones 0.8% 17784 12-12-19
306 darkstarblaze 0.8% 17785 12-12-19
306 Greham Adelphis 0.8% 17785 12-12-19
306 TommyeAsY 0.8% 17785 12-12-19
309 ptorflaxendrosis 0.8% 17792 12-12-19
310 FlandreScarlet9999vr 0.8% 17794 12-12-19
311 Gvozdevik 0.8% 17795 12-12-19
312 Knuckles 0.8% 17797 12-12-19
312 Zeldocto 0.8% 17797 12-12-19
314 BeeAwwb 0.7% 17803 12-12-19
315 KaM Mark MaK 0.7% 17805 12-12-19
316 ShadouZaHejjihoggu 0.7% 17808 12-12-19
317 Sogeking 0.7% 17816 12-12-19
317 Sonic The Star 0.7% 17816 12-12-19
319 darkersupershadic 0.7% 17817 12-12-19
320 Sonic62 0.6% 17821 12-12-19
321 Sarger001 0.6% 17824 12-12-19
322 Grady219 0.6% 17826 12-12-19
323 dragondragon18 0.6% 17827 12-12-19
323 SonicK100 0.6% 17827 12-12-19
325 Shadygamerfreak 0.6% 17828 12-12-19
326 Jawaah 0.6% 17831 12-12-19
327 Antek 0.6% 17835 12-12-19
327 SpinDashMaster 0.6% 17835 12-12-19
329 Klaus 0.5% 17837 12-12-19
330 SilverK 0.5% 17839 12-12-19
331 BioShadow 0.5% 17843 12-12-19
332 Videogamer123 0.5% 17850 12-12-19
333 IcKY 0.5% 17853 12-12-19
334 oTaiIilLsS 0.4% 17860 12-12-19
335 isaihtb11 0.4% 17864 12-12-19
336 OhNoes! 0.4% 17865 12-12-19
337 Mad Andy 0.4% 17866 12-12-19
338 zaktu40 0.4% 17867 12-12-19
339 S-MS32X-S 0.4% 17868 12-12-19
340 gaara1234 0.4% 17870 12-12-19
341 gamed00d 0.3% 17875 12-12-19
342 Mister_Slick 0.3% 17881 12-12-19
343 Sonic06Fan 0.3% 17884 12-12-19
344 Rush Hero 0.3% 17886 12-12-19
345 ChaosNexuss 0.3% 17887 12-12-19
346 SonicMega167 0.2% 17892 12-12-19
347 Iwannabelink 0.2% 17894 12-12-19
348 sonknuck23 0.2% 17896 12-12-19
349 gamer1245 0.2% 17903 12-12-19
350 DanielTheFalcon 0.2% 17904 12-12-19
351 Burningskull123 0.1% 17911 12-12-19
352 Sonicontherun 0.1% 17922 12-12-19
353 Lil_Dude 0.1% 17924 12-12-19
354 antiwwe 0.0% 17928 12-12-19
355 Cbwade15 0.0% 17932 12-12-19
355 Genuine Hedgehog 0.0% 17932 12-12-19
357 Tyrouble 0.0% 17936 12-12-19
358 MegabombBlade 0.0% 17943 12-12-19
358 neji_hyuuga 0.0% 17943 12-12-19
358 Over 0.0% 17943 12-12-19
358 sdj6707 Player Banned 0.0% 17943 12-12-19
358 Tran Sonic Fan Player Banned 0.0% 17943 12-12-19

This page is using the New Data Table System. [FUTURE]

Game ID: 3 | Category ID: 10
Hits: 76,502 | Hits This Month: 79 | DB Calls: 21 | Mem Usage: 5.89 MB | Time: 0.16s | Printable

The Sonic Center v3.9
Copyright 2003-2011 by The Sonic Center Team.